createdAt,value
2023-02-05T00:02:08.813Z,5.20
2023-02-05T00:04:35.418Z,4.30
2023-02-05T00:07:01.921Z,4.10
2023-02-05T00:09:28.381Z,3.60
2023-02-05T00:11:55.127Z,4.10
2023-02-05T00:14:21.545Z,4.60
2023-02-05T00:16:48.103Z,5.40
2023-02-05T00:19:14.684Z,5.70
2023-02-05T00:21:41.068Z,5.90
2023-02-05T00:24:08.125Z,4.90
2023-02-05T00:26:35.869Z,4.60
2023-02-05T00:29:03.271Z,4.60
2023-02-05T00:31:29.960Z,3.80
2023-02-05T00:33:56.546Z,5.70
2023-02-05T00:36:23.183Z,6.40
2023-02-05T00:38:50.292Z,6.10
2023-02-05T00:41:17.443Z,6.30
2023-02-05T00:43:44.086Z,6.70
2023-02-05T00:46:11.089Z,5.30
2023-02-05T00:48:38.271Z,4.60
2023-02-05T00:51:05.076Z,4.40
2023-02-05T00:53:31.623Z,4.70
2023-02-05T00:55:58.192Z,4.30
2023-02-05T00:58:24.853Z,4.20
2023-02-05T01:00:51.312Z,4.00
2023-02-05T01:03:18.510Z,4.20
2023-02-05T01:05:45.412Z,4.50
2023-02-05T01:08:12.543Z,4.00
2023-02-05T01:10:42.577Z,3.40
2023-02-05T01:13:08.997Z,3.70
2023-02-05T01:15:35.710Z,4.20
2023-02-05T01:18:02.341Z,3.70
2023-02-05T01:20:28.807Z,3.20
2023-02-05T01:22:55.292Z,4.00
2023-02-05T01:25:21.898Z,4.00
2023-02-05T01:27:48.338Z,3.90
2023-02-05T01:30:15.073Z,3.90
2023-02-05T01:32:41.792Z,4.10
2023-02-05T01:35:08.435Z,3.50
2023-02-05T01:37:35.162Z,4.20
2023-02-05T01:40:01.736Z,3.60
2023-02-05T01:42:29.467Z,4.40
2023-02-05T01:45:14.657Z,3.60
2023-02-05T01:47:41.094Z,3.80
2023-02-05T01:50:07.427Z,4.00
2023-02-05T01:52:33.785Z,3.90
2023-02-05T01:55:01.685Z,3.30
2023-02-05T01:57:28.354Z,4.10
2023-02-05T01:59:54.750Z,4.10
2023-02-05T02:02:21.101Z,3.60
2023-02-05T02:04:53.781Z,3.50
2023-02-05T02:07:21.369Z,4.00
2023-02-05T02:09:48.065Z,4.00
2023-02-05T02:12:16.945Z,3.60
2023-02-05T02:14:45.036Z,3.70
2023-02-05T02:17:11.956Z,4.30
2023-02-05T02:19:51.167Z,4.10
2023-02-05T02:22:36.242Z,4.00
2023-02-05T02:25:17.466Z,4.00
2023-02-05T02:27:46.411Z,4.10
2023-02-05T02:30:23.476Z,3.90
2023-02-05T02:33:00.565Z,4.00
2023-02-05T02:35:31.889Z,4.10
2023-02-05T02:38:13.425Z,4.10
2023-02-05T02:40:39.773Z,3.90
2023-02-05T02:43:18.350Z,4.10
2023-02-05T02:45:48.136Z,4.70
2023-02-05T02:48:15.652Z,5.20
2023-02-05T02:50:44.031Z,5.70
2023-02-05T02:53:18.709Z,4.40
2023-02-05T02:55:47.081Z,4.70
2023-02-05T02:58:15.768Z,4.10
2023-02-05T03:00:44.315Z,4.40
2023-02-05T03:03:11.932Z,4.30
2023-02-05T03:05:41.428Z,4.00
2023-02-05T03:08:18.784Z,3.90
2023-02-05T03:10:47.592Z,4.60
2023-02-05T03:13:14.431Z,4.40
2023-02-05T03:15:42.464Z,4.70
2023-02-05T03:18:09.218Z,4.70
2023-02-05T03:20:38.293Z,5.20
2023-02-05T03:23:04.707Z,5.10
2023-02-05T03:25:31.238Z,5.30
2023-02-05T03:27:58.022Z,5.10
2023-02-05T03:30:27.187Z,4.70
2023-02-05T03:33:12.129Z,4.60
2023-02-05T03:35:45.848Z,5.80
2023-02-05T03:38:15.248Z,4.80
2023-02-05T03:40:57.100Z,5.30
2023-02-05T03:43:42.607Z,4.60
2023-02-05T03:46:15.424Z,4.70
2023-02-05T03:48:41.814Z,4.80
2023-02-05T03:51:14.457Z,4.30
2023-02-05T03:53:46.960Z,4.50
2023-02-05T03:56:17.002Z,5.20
2023-02-05T03:58:45.897Z,4.90
2023-02-05T04:01:12.578Z,4.70
2023-02-05T04:03:39.051Z,4.50
2023-02-05T04:06:06.251Z,5.30
2023-02-05T04:08:32.683Z,5.10
2023-02-05T04:10:59.034Z,4.70
2023-02-05T04:13:25.402Z,4.50
2023-02-05T04:15:51.818Z,4.40
2023-02-05T04:18:18.533Z,4.20
2023-02-05T04:20:45.090Z,4.30
2023-02-05T04:23:11.499Z,5.10
2023-02-05T04:25:38.602Z,5.90
2023-02-05T04:28:05.815Z,6.40
2023-02-05T04:30:32.843Z,6.50
2023-02-05T04:32:59.282Z,6.20
2023-02-05T04:35:25.710Z,5.80
2023-02-05T04:37:52.496Z,6.40
2023-02-05T04:40:18.947Z,6.00
2023-02-05T04:42:45.377Z,7.00
2023-02-05T04:45:12.107Z,8.00
2023-02-05T04:47:38.596Z,10.50
2023-02-05T04:50:05.168Z,9.10
2023-02-05T04:52:31.599Z,8.00
2023-02-05T04:54:57.991Z,8.60
2023-02-05T04:57:24.444Z,10.00
2023-02-05T04:59:50.970Z,8.90
2023-02-05T05:02:17.382Z,9.20
2023-02-05T05:04:43.908Z,9.90
2023-02-05T05:07:10.374Z,9.90
2023-02-05T05:09:36.841Z,7.60
2023-02-05T05:12:03.285Z,7.60
2023-02-05T05:14:29.665Z,6.60
2023-02-05T05:16:56.090Z,5.40
2023-02-05T05:19:22.523Z,6.10
2023-02-05T05:21:48.900Z,6.60
2023-02-05T05:24:15.267Z,7.80
2023-02-05T05:26:44.375Z,7.40
2023-02-05T05:29:11.023Z,7.80
2023-02-05T05:31:37.405Z,9.70
2023-02-05T05:34:03.984Z,9.20
2023-02-05T05:36:30.576Z,8.20
2023-02-05T05:39:16.980Z,8.80
2023-02-05T05:42:01.657Z,7.50
2023-02-05T05:44:28.154Z,6.60
2023-02-05T05:46:54.619Z,7.30
2023-02-05T05:49:21.039Z,7.00
2023-02-05T05:51:47.550Z,7.70
2023-02-05T05:54:13.975Z,7.40
2023-02-05T05:56:40.390Z,7.30
2023-02-05T05:59:06.748Z,6.50
2023-02-05T06:01:33.190Z,6.20
2023-02-05T06:03:59.639Z,5.40
2023-02-05T06:06:26.029Z,7.50
2023-02-05T06:08:52.423Z,6.10
2023-02-05T06:11:18.806Z,7.10
2023-02-05T06:13:45.162Z,6.80
2023-02-05T06:16:11.694Z,6.30
2023-02-05T06:18:38.132Z,9.60
2023-02-05T06:21:05.335Z,10.60
2023-02-05T06:23:32.268Z,11.20
2023-02-05T06:25:58.754Z,10.10
2023-02-05T06:28:25.183Z,7.80
2023-02-05T06:30:51.664Z,7.80
2023-02-05T06:33:18.078Z,7.60
2023-02-05T06:35:44.500Z,6.90
2023-02-05T06:38:10.821Z,6.40
2023-02-05T06:40:37.242Z,6.20
2023-02-05T06:43:03.653Z,5.80
2023-02-05T06:45:30.137Z,6.20
2023-02-05T06:47:57.140Z,5.40
2023-02-05T06:50:23.719Z,5.70
2023-02-05T06:52:50.690Z,5.90
2023-02-05T06:55:17.357Z,6.40
2023-02-05T06:59:28.696Z,6.20
2023-02-05T07:01:56.481Z,6.00
2023-02-05T07:04:24.474Z,6.60
2023-02-05T07:06:54.312Z,8.60
2023-02-05T07:09:22.013Z,10.00
2023-02-05T07:11:50.054Z,11.10
2023-02-05T07:14:17.962Z,13.60
2023-02-05T07:16:45.854Z,14.90
2023-02-05T07:19:13.872Z,11.90
2023-02-05T07:21:41.761Z,11.20
2023-02-05T07:24:09.698Z,9.80
2023-02-05T07:26:38.757Z,10.40
2023-02-05T07:29:06.669Z,8.40
2023-02-05T07:31:34.884Z,8.40
2023-02-05T07:34:02.816Z,8.10
2023-02-05T07:36:30.593Z,9.70
2023-02-05T07:38:58.476Z,9.40
2023-02-05T07:41:29.115Z,12.50
2023-02-05T07:43:56.888Z,13.50
2023-02-05T07:46:24.928Z,13.10
2023-02-05T07:48:52.892Z,15.30
2023-02-05T07:51:22.589Z,13.90
2023-02-05T07:53:51.085Z,11.00
2023-02-05T07:56:21.937Z,9.50
2023-02-05T07:58:49.809Z,20.40
2023-02-05T08:01:17.680Z,11.80
2023-02-05T08:03:45.573Z,9.70
2023-02-05T08:06:14.820Z,11.60
2023-02-05T08:08:43.128Z,9.60
2023-02-05T08:11:13.872Z,8.30
2023-02-05T08:13:42.341Z,7.50
2023-02-05T08:16:10.351Z,8.70
2023-02-05T08:18:39.001Z,8.60
2023-02-05T08:21:07.214Z,9.50
2023-02-05T08:23:35.030Z,9.70
2023-02-05T08:26:02.789Z,13.10
2023-02-05T08:28:30.603Z,12.40
2023-02-05T08:30:58.765Z,11.80
2023-02-05T08:33:26.601Z,10.90
2023-02-05T08:35:54.488Z,8.70
2023-02-05T08:38:22.381Z,9.20
2023-02-05T08:40:50.224Z,9.90
2023-02-05T08:43:18.010Z,9.60
2023-02-05T08:45:47.192Z,11.10
2023-02-05T08:48:15.286Z,8.20
2023-02-05T08:50:46.957Z,8.30
2023-02-05T08:53:17.322Z,7.70
2023-02-05T08:55:46.207Z,11.80
2023-02-05T08:58:14.441Z,8.60
2023-02-05T09:00:42.243Z,9.40
2023-02-05T09:03:10.159Z,15.80
2023-02-05T09:05:38.935Z,10.50
2023-02-05T09:08:06.882Z,9.70
2023-02-05T09:10:34.829Z,9.70
2023-02-05T09:13:02.752Z,10.70
2023-02-05T09:15:30.535Z,8.50
2023-02-05T09:17:58.573Z,9.10
2023-02-05T09:20:26.924Z,9.40
2023-02-05T09:22:55.679Z,9.80
2023-02-05T09:25:23.449Z,8.40
2023-02-05T09:27:51.300Z,8.80
2023-02-05T09:30:19.203Z,9.50
2023-02-05T09:32:50.574Z,9.60
2023-02-05T09:35:18.377Z,10.00
2023-02-05T09:37:46.771Z,13.10
2023-02-05T09:40:22.789Z,9.60
2023-02-05T09:43:12.424Z,9.00
2023-02-05T09:45:59.585Z,8.30
2023-02-05T09:48:36.572Z,8.50
2023-02-05T09:51:04.985Z,8.20
2023-02-05T09:53:39.135Z,9.90
2023-02-05T09:56:08.167Z,8.30
2023-02-05T09:58:40.382Z,9.00
2023-02-05T10:01:21.693Z,8.30
2023-02-05T10:04:03.620Z,9.00
2023-02-05T10:06:50.157Z,9.80
2023-02-05T10:09:29.512Z,9.00
2023-02-05T10:12:16.493Z,9.80
2023-02-05T10:14:54.765Z,9.40
2023-02-05T10:17:47.086Z,9.70
2023-02-05T10:20:29.693Z,8.90
2023-02-05T10:23:17.221Z,9.60
2023-02-05T10:25:57.463Z,10.00
2023-02-05T10:28:31.186Z,16.00
2023-02-05T10:31:23.093Z,14.70
2023-02-05T10:33:58.734Z,20.10
2023-02-05T10:36:27.225Z,25.50
2023-02-05T10:38:56.487Z,28.30
2023-02-05T10:41:24.307Z,30.00
2023-02-05T10:43:54.247Z,29.50
2023-02-05T10:46:25.617Z,28.20
2023-02-05T10:48:57.515Z,31.80
2023-02-05T10:51:31.255Z,32.50
2023-02-05T10:54:00.882Z,34.90
2023-02-05T10:56:28.784Z,33.90
2023-02-05T10:58:58.622Z,32.00
2023-02-05T11:01:31.091Z,26.90
2023-02-05T11:04:01.111Z,19.90
2023-02-05T11:06:31.833Z,16.00
2023-02-05T11:08:59.791Z,15.30
2023-02-05T11:11:32.149Z,15.50
2023-02-05T11:14:05.769Z,18.00
2023-02-05T11:16:44.468Z,21.50
2023-02-05T11:19:21.365Z,17.90
2023-02-05T11:21:53.552Z,11.60
2023-02-05T11:24:23.883Z,11.60
2023-02-05T11:27:11.924Z,13.10
2023-02-05T11:29:40.009Z,13.20
2023-02-05T11:32:31.341Z,10.80
2023-02-05T11:35:19.527Z,15.70
2023-02-05T11:37:48.780Z,14.80
2023-02-05T11:40:24.894Z,11.40
2023-02-05T11:43:01.374Z,9.70
2023-02-05T11:45:30.538Z,10.40
2023-02-05T11:48:01.073Z,11.60
2023-02-05T11:50:29.712Z,12.20
2023-02-05T11:53:06.013Z,9.70
2023-02-05T11:55:36.335Z,10.10
2023-02-05T11:58:05.954Z,11.40
2023-02-05T12:00:36.319Z,9.30
2023-02-05T12:03:17.148Z,11.10
2023-02-05T12:05:51.044Z,10.60
2023-02-05T12:08:28.000Z,15.00
2023-02-05T12:11:01.078Z,10.10
2023-02-05T12:13:35.448Z,8.90
2023-02-05T12:16:28.900Z,8.70
2023-02-05T12:19:12.587Z,10.90
2023-02-05T12:21:43.969Z,11.90
2023-02-05T12:24:24.198Z,9.40
2023-02-05T12:26:58.111Z,9.20
2023-02-05T12:29:32.109Z,6.90
2023-02-05T12:32:19.460Z,9.40
2023-02-05T12:34:56.260Z,8.30
2023-02-05T12:37:27.761Z,6.90
2023-02-05T12:40:04.936Z,6.80
2023-02-05T12:42:35.713Z,7.40
2023-02-05T12:45:22.935Z,7.80
2023-02-05T12:47:59.890Z,7.20
2023-02-05T12:50:46.637Z,7.60
2023-02-05T12:53:29.735Z,6.60
2023-02-05T12:56:13.125Z,6.70
2023-02-05T12:58:46.510Z,8.00
2023-02-05T13:01:43.890Z,7.80
2023-02-05T13:04:39.829Z,7.50
2023-02-05T13:07:12.001Z,7.30
2023-02-05T13:10:05.156Z,8.10
2023-02-05T13:12:35.868Z,7.30
2023-02-05T13:15:21.156Z,8.50
2023-02-05T13:18:05.184Z,7.90
2023-02-05T13:20:56.616Z,8.50
2023-02-05T13:23:43.060Z,7.90
2023-02-05T13:26:25.541Z,6.80
2023-02-05T13:29:11.677Z,6.90
2023-02-05T13:31:50.091Z,8.10
2023-02-05T13:34:18.276Z,10.10
2023-02-05T13:37:05.156Z,9.30
2023-02-05T13:39:42.710Z,14.50
2023-02-05T13:42:23.402Z,9.50
2023-02-05T13:45:19.463Z,6.80
2023-02-05T13:48:03.919Z,8.20
2023-02-05T13:50:32.216Z,11.20
2023-02-05T13:53:12.650Z,10.50
2023-02-05T13:55:43.590Z,8.70
2023-02-05T13:58:14.556Z,7.60
2023-02-05T14:00:43.754Z,7.60
2023-02-05T14:03:25.424Z,7.20
2023-02-05T14:05:53.415Z,8.20
2023-02-05T14:08:22.980Z,7.90
2023-02-05T14:11:01.736Z,8.20
2023-02-05T14:13:34.522Z,8.40
2023-02-05T14:16:21.561Z,7.70
2023-02-05T14:18:51.390Z,6.60
2023-02-05T14:21:31.626Z,7.70
2023-02-05T14:24:04.009Z,6.70
2023-02-05T14:26:44.294Z,7.40
2023-02-05T14:29:31.042Z,8.30
2023-02-05T14:31:58.875Z,7.60
2023-02-05T14:34:32.790Z,6.30
2023-02-05T14:37:06.592Z,7.10
2023-02-05T14:39:38.528Z,7.90
2023-02-05T14:42:07.803Z,8.30
2023-02-05T14:44:38.109Z,8.10
2023-02-05T14:47:06.009Z,7.90
2023-02-05T14:49:34.044Z,8.60
2023-02-05T14:52:03.566Z,9.80
2023-02-05T14:54:34.077Z,9.00
2023-02-05T14:57:29.065Z,9.90
2023-02-05T14:59:59.517Z,9.60
2023-02-05T15:02:46.076Z,8.50
2023-02-05T15:05:17.390Z,8.90
2023-02-05T15:07:47.023Z,8.90
2023-02-05T15:10:18.663Z,9.10
2023-02-05T15:12:55.671Z,8.70
2023-02-05T15:15:31.660Z,8.10
2023-02-05T15:18:05.046Z,8.70
2023-02-05T15:20:36.238Z,8.30
2023-02-05T15:23:06.501Z,10.40
2023-02-05T15:25:42.564Z,12.30
2023-02-05T15:28:31.172Z,10.20
2023-02-05T15:30:59.227Z,10.70
2023-02-05T15:33:34.423Z,12.40
2023-02-05T15:36:05.880Z,13.40
2023-02-05T15:38:33.887Z,17.90
2023-02-05T15:41:05.091Z,20.60
2023-02-05T15:43:32.896Z,18.00
2023-02-05T15:46:02.866Z,19.20
2023-02-05T15:48:36.672Z,17.40
2023-02-05T15:51:20.375Z,13.70
2023-02-05T15:53:49.709Z,12.60
2023-02-05T15:56:24.355Z,11.60
2023-02-05T15:58:58.647Z,10.90
2023-02-05T16:01:48.946Z,9.60
2023-02-05T16:04:23.117Z,10.10
2023-02-05T16:06:51.142Z,11.10
2023-02-05T16:09:20.163Z,11.20
2023-02-05T16:11:48.477Z,10.70
2023-02-05T16:14:17.828Z,10.00
2023-02-05T16:16:54.711Z,12.10
2023-02-05T16:19:27.204Z,11.40
2023-02-05T16:21:59.597Z,12.30
2023-02-05T16:24:31.807Z,13.20
2023-02-05T16:27:09.461Z,11.90
2023-02-05T16:29:47.756Z,9.70
2023-02-05T16:32:30.801Z,11.90
2023-02-05T16:35:00.100Z,14.50
2023-02-05T16:37:30.414Z,18.30
2023-02-05T16:40:00.762Z,17.50
2023-02-05T16:42:35.392Z,15.70
2023-02-05T16:45:09.332Z,16.80
2023-02-05T16:47:37.521Z,19.80
2023-02-05T16:50:24.401Z,20.30
2023-02-05T16:52:57.755Z,16.60
2023-02-05T16:55:25.576Z,18.20
2023-02-05T16:57:54.222Z,16.80
2023-02-05T17:00:22.564Z,21.90
2023-02-05T17:02:53.101Z,23.00
2023-02-05T17:05:24.156Z,23.40
2023-02-05T17:07:59.916Z,28.40
2023-02-05T17:10:29.031Z,32.20
2023-02-05T17:13:05.289Z,31.30
2023-02-05T17:15:42.112Z,26.70
2023-02-05T17:18:20.170Z,31.30
2023-02-05T17:20:48.398Z,50.70
2023-02-05T17:23:17.319Z,78.10
2023-02-05T17:25:55.727Z,87.30
2023-02-05T17:28:27.486Z,100.60
2023-02-05T17:30:59.797Z,88.10
2023-02-05T17:33:28.454Z,77.90
2023-02-05T17:35:56.312Z,74.20
2023-02-05T17:38:24.293Z,77.40
2023-02-05T17:41:15.116Z,76.50
2023-02-05T17:43:43.269Z,66.80
2023-02-05T17:46:14.676Z,61.50
2023-02-05T17:48:44.822Z,91.90
2023-02-05T17:51:19.786Z,97.90
2023-02-05T17:53:48.573Z,101.10
2023-02-05T17:56:19.500Z,96.40
2023-02-05T17:58:52.618Z,85.10
2023-02-05T18:01:20.450Z,89.00
2023-02-05T18:03:48.322Z,86.70
2023-02-05T18:06:19.242Z,85.20
2023-02-05T18:08:47.424Z,84.50
2023-02-05T18:11:15.673Z,91.20
2023-02-05T18:13:46.611Z,99.30
2023-02-05T18:16:14.605Z,101.80
2023-02-05T18:18:44.561Z,106.50
2023-02-05T18:21:12.462Z,106.40
2023-02-05T18:23:40.644Z,101.60
2023-02-05T18:26:10.056Z,93.00
2023-02-05T18:28:38.127Z,95.90
2023-02-05T18:31:07.564Z,106.20
2023-02-05T18:33:36.110Z,97.80
2023-02-05T18:36:05.297Z,92.60
2023-02-05T18:38:33.811Z,89.40
2023-02-05T18:41:12.439Z,87.00
2023-02-05T18:43:40.716Z,90.40
2023-02-05T18:46:10.191Z,89.40
2023-02-05T18:48:40.922Z,98.90
2023-02-05T18:51:10.045Z,92.70
2023-02-05T18:53:39.086Z,91.50
2023-02-05T18:56:08.777Z,92.30
2023-02-05T18:58:36.686Z,94.70
2023-02-05T19:01:13.632Z,88.00
2023-02-05T19:03:42.643Z,88.50
2023-02-05T19:06:11.865Z,83.80
2023-02-05T19:08:40.957Z,78.70
2023-02-05T19:11:20.491Z,70.40
2023-02-05T19:13:54.499Z,58.00
2023-02-05T19:16:22.426Z,56.60
2023-02-05T19:18:50.542Z,60.70
2023-02-05T19:21:22.522Z,56.90
2023-02-05T19:23:56.369Z,66.00
2023-02-05T19:26:25.361Z,73.70
2023-02-05T19:28:56.424Z,77.00
2023-02-05T19:31:25.919Z,77.50
2023-02-05T19:33:55.148Z,63.40
2023-02-05T19:36:23.574Z,64.00
2023-02-05T19:38:51.412Z,71.30
2023-02-05T19:41:20.723Z,70.50
2023-02-05T19:43:59.255Z,70.90
2023-02-05T19:46:28.267Z,69.70
2023-02-05T19:48:56.723Z,73.20
2023-02-05T19:51:25.230Z,76.30
2023-02-05T19:53:55.866Z,74.20
2023-02-05T19:56:24.234Z,75.70
2023-02-05T19:58:53.631Z,74.00
2023-02-05T20:01:23.854Z,72.80
2023-02-05T20:03:55.890Z,71.10
2023-02-05T20:06:24.920Z,67.70
2023-02-05T20:08:53.162Z,79.10
2023-02-05T20:11:21.332Z,77.10
2023-02-05T20:13:49.577Z,78.40
2023-02-05T20:16:18.994Z,77.60
2023-02-05T20:18:47.910Z,78.70
2023-02-05T20:21:18.689Z,76.70
2023-02-05T20:23:47.058Z,74.70
2023-02-05T20:26:18.945Z,80.20
2023-02-05T20:29:06.313Z,72.90
2023-02-05T20:31:34.392Z,71.80
2023-02-05T20:34:03.508Z,66.60
2023-02-05T20:36:32.267Z,68.10
2023-02-05T20:39:02.483Z,67.50
2023-02-05T20:41:30.437Z,51.90
2023-02-05T20:43:58.559Z,56.70
2023-02-05T20:46:26.818Z,60.10
2023-02-05T20:48:54.880Z,66.00
2023-02-05T20:51:23.353Z,66.50
2023-02-05T20:53:51.621Z,64.50
2023-02-05T20:56:20.233Z,62.10
2023-02-05T20:58:48.073Z,62.50
2023-02-05T21:01:20.470Z,58.30
2023-02-05T21:03:49.661Z,56.00
2023-02-05T21:06:18.849Z,54.20
2023-02-05T21:08:47.442Z,49.80
2023-02-05T21:11:16.133Z,53.60
2023-02-05T21:13:44.606Z,54.90
2023-02-05T21:16:12.926Z,61.10
2023-02-05T21:18:40.774Z,62.70
2023-02-05T21:21:10.044Z,61.20
2023-02-05T21:23:37.866Z,58.80
2023-02-05T21:26:06.188Z,59.50
2023-02-05T21:28:34.360Z,60.00
2023-02-05T21:31:06.816Z,63.30
2023-02-05T21:33:35.336Z,61.50
2023-02-05T21:36:07.224Z,58.80
2023-02-05T21:38:36.180Z,53.20
2023-02-05T21:41:14.629Z,51.70
2023-02-05T21:43:42.516Z,51.20
2023-02-05T21:46:12.088Z,53.20
2023-02-05T21:48:40.736Z,54.80
2023-02-05T21:51:12.900Z,63.00
2023-02-05T21:53:41.078Z,72.90
2023-02-05T21:56:10.478Z,83.40
2023-02-05T21:58:39.866Z,85.40
2023-02-05T22:01:12.078Z,78.30
2023-02-05T22:03:40.513Z,86.50
2023-02-05T22:06:08.931Z,83.70
2023-02-05T22:08:37.813Z,79.50
2023-02-05T22:11:09.794Z,77.00
2023-02-05T22:13:38.935Z,77.50
2023-02-05T22:16:30.102Z,76.50
2023-02-05T22:18:58.778Z,66.20
2023-02-05T22:21:27.737Z,64.60
2023-02-05T22:23:56.362Z,71.80
2023-02-05T22:26:29.044Z,71.20
2023-02-05T22:28:59.238Z,68.40
2023-02-05T22:31:27.928Z,69.20
2023-02-05T22:33:56.462Z,67.90
2023-02-05T22:36:26.826Z,62.80
2023-02-05T22:38:55.490Z,64.70
2023-02-05T22:41:25.194Z,68.00
2023-02-05T22:43:57.279Z,65.70
2023-02-05T22:46:26.275Z,64.40
2023-02-05T22:48:54.321Z,65.50
2023-02-05T22:51:23.550Z,65.00
2023-02-05T22:53:55.029Z,64.40
2023-02-05T22:56:22.842Z,57.20
2023-02-05T22:58:51.704Z,59.00
2023-02-05T23:01:21.156Z,62.80
2023-02-05T23:03:50.944Z,64.30
2023-02-05T23:06:26.684Z,68.80
2023-02-05T23:08:59.122Z,60.70
2023-02-05T23:11:27.985Z,60.20
2023-02-05T23:13:56.857Z,59.30
2023-02-05T23:16:26.893Z,56.80
2023-02-05T23:18:59.449Z,51.90
2023-02-05T23:21:29.478Z,56.80
2023-02-05T23:23:57.585Z,56.70
2023-02-05T23:26:26.858Z,58.40
2023-02-05T23:28:55.663Z,58.00
2023-02-05T23:31:24.271Z,58.90
2023-02-05T23:33:54.209Z,58.90
2023-02-05T23:36:22.450Z,56.70
2023-02-05T23:38:50.625Z,55.50
2023-02-05T23:41:38.715Z,57.00
2023-02-05T23:44:18.249Z,58.10
2023-02-05T23:46:47.026Z,58.90
2023-02-05T23:49:15.172Z,56.90
2023-02-05T23:51:59.829Z,60.50
2023-02-05T23:54:27.562Z,54.50
2023-02-05T23:56:55.773Z,53.10
2023-02-05T23:59:23.511Z,53.80
